createdAt,value
2017-10-22T00:00:43.817Z,0.00
2017-10-22T00:01:43.763Z,0.00
2017-10-22T00:02:43.704Z,0.00
2017-10-22T00:03:43.644Z,0.00
2017-10-22T00:04:43.585Z,4.00
2017-10-22T00:05:43.529Z,0.00
2017-10-22T00:06:43.473Z,0.00
2017-10-22T00:07:43.423Z,0.00
2017-10-22T00:08:43.363Z,0.00
2017-10-22T00:09:43.305Z,0.00
2017-10-22T00:10:43.250Z,0.00
2017-10-22T00:11:43.195Z,0.00
2017-10-22T00:12:43.139Z,0.00
2017-10-22T00:13:43.084Z,0.00
2017-10-22T00:14:43.029Z,4.00
2017-10-22T00:15:42.969Z,0.00
2017-10-22T00:16:42.914Z,0.00
2017-10-22T00:17:42.855Z,0.00
2017-10-22T00:18:42.803Z,0.00
2017-10-22T00:19:42.748Z,0.00
2017-10-22T00:20:42.695Z,4.00
2017-10-22T00:21:42.639Z,0.00
2017-10-22T00:22:42.585Z,0.00
2017-10-22T00:23:42.531Z,0.00
2017-10-22T00:24:42.476Z,0.00
2017-10-22T00:25:42.407Z,0.00
2017-10-22T00:26:42.342Z,0.00
2017-10-22T00:27:42.288Z,0.00
2017-10-22T00:28:42.231Z,0.00
2017-10-22T00:29:42.175Z,0.00
2017-10-22T00:30:42.117Z,4.00
2017-10-22T00:31:42.059Z,4.00
2017-10-22T00:32:42.005Z,4.00
2017-10-22T00:33:41.949Z,4.00
2017-10-22T00:34:41.895Z,0.00
2017-10-22T00:35:41.826Z,4.00
2017-10-22T00:36:41.772Z,4.00
2017-10-22T00:37:41.715Z,0.00
2017-10-22T00:38:41.658Z,4.00
2017-10-22T00:39:41.603Z,0.00
2017-10-22T00:40:41.547Z,0.00
2017-10-22T00:41:41.493Z,0.00
2017-10-22T00:42:41.438Z,0.00
2017-10-22T00:43:41.380Z,0.00
2017-10-22T00:44:41.323Z,4.00
2017-10-22T00:45:41.268Z,0.00
2017-10-22T00:46:41.211Z,0.00
2017-10-22T00:47:41.156Z,0.00
2017-10-22T00:48:41.101Z,0.00
2017-10-22T00:49:41.046Z,0.00
2017-10-22T00:50:40.991Z,0.00
2017-10-22T00:51:40.936Z,0.00
2017-10-22T00:52:40.881Z,0.00
2017-10-22T00:53:40.827Z,0.00
2017-10-22T00:54:40.772Z,0.00
2017-10-22T00:55:40.717Z,0.00
2017-10-22T00:56:40.663Z,0.00
2017-10-22T00:57:40.589Z,0.00
2017-10-22T00:58:40.529Z,0.00
2017-10-22T00:59:40.474Z,0.00
2017-10-22T01:00:40.417Z,0.00
2017-10-22T01:01:40.360Z,0.00
2017-10-22T01:02:40.303Z,0.00
2017-10-22T01:03:40.248Z,0.00
2017-10-22T01:04:40.191Z,0.00
2017-10-22T01:05:40.135Z,0.00
2017-10-22T01:06:40.080Z,0.00
2017-10-22T01:07:40.012Z,0.00
2017-10-22T01:08:39.958Z,0.00
2017-10-22T01:09:39.903Z,4.00
2017-10-22T01:10:39.845Z,0.00
2017-10-22T01:11:39.790Z,0.00
2017-10-22T01:12:39.735Z,0.00
2017-10-22T01:13:39.680Z,0.00
2017-10-22T01:14:39.623Z,0.00
2017-10-22T01:15:39.570Z,0.00
2017-10-22T01:16:39.512Z,0.00
2017-10-22T01:17:39.467Z,0.00
2017-10-22T01:18:39.399Z,0.00
2017-10-22T01:19:39.343Z,0.00
2017-10-22T01:20:39.288Z,0.00
2017-10-22T01:21:39.234Z,0.00
2017-10-22T01:22:39.182Z,0.00
2017-10-22T01:23:39.123Z,0.00
2017-10-22T01:24:39.073Z,0.00
2017-10-22T01:25:39.013Z,0.00
2017-10-22T01:26:38.958Z,0.00
2017-10-22T01:27:38.904Z,0.00
2017-10-22T01:28:38.850Z,0.00
2017-10-22T01:29:38.777Z,0.00
2017-10-22T01:30:38.740Z,0.00
2017-10-22T01:31:38.662Z,0.00
2017-10-22T01:32:38.605Z,0.00
2017-10-22T01:33:38.549Z,0.00
2017-10-22T01:34:38.496Z,0.00
2017-10-22T01:35:38.434Z,0.00
2017-10-22T01:36:38.379Z,0.00
2017-10-22T01:37:38.324Z,0.00
2017-10-22T01:38:38.261Z,0.00
2017-10-22T01:39:38.209Z,0.00
2017-10-22T01:40:38.148Z,0.00
2017-10-22T01:41:38.092Z,0.00
2017-10-22T01:42:38.034Z,0.00
2017-10-22T01:43:37.980Z,0.00
2017-10-22T01:44:37.923Z,0.00
2017-10-22T01:45:37.866Z,0.00
2017-10-22T01:46:37.811Z,0.00
2017-10-22T01:47:37.758Z,0.00
2017-10-22T01:48:37.701Z,0.00
2017-10-22T01:49:37.643Z,0.00
2017-10-22T01:50:37.590Z,0.00
2017-10-22T01:51:37.531Z,0.00
2017-10-22T01:52:37.476Z,0.00
2017-10-22T01:53:37.420Z,0.00
2017-10-22T01:54:37.365Z,0.00
2017-10-22T01:55:37.310Z,0.00
2017-10-22T01:56:37.254Z,0.00
2017-10-22T01:57:37.199Z,0.00
2017-10-22T01:58:37.146Z,0.00
2017-10-22T01:59:37.091Z,0.00
2017-10-22T02:00:37.036Z,0.00
2017-10-22T02:01:36.982Z,0.00
2017-10-22T02:02:36.927Z,0.00
2017-10-22T02:03:36.854Z,0.00
2017-10-22T02:04:36.798Z,0.00
2017-10-22T02:05:36.738Z,0.00
2017-10-22T02:06:36.685Z,0.00
2017-10-22T02:07:36.630Z,0.00
2017-10-22T02:08:36.563Z,0.00
2017-10-22T02:09:36.512Z,0.00
2017-10-22T02:10:36.455Z,0.00
2017-10-22T02:11:36.396Z,0.00
2017-10-22T02:12:36.337Z,0.00
2017-10-22T02:13:36.281Z,0.00
2017-10-22T02:14:36.223Z,0.00
2017-10-22T02:15:36.168Z,0.00
2017-10-22T02:16:36.111Z,0.00
2017-10-22T02:17:36.055Z,0.00
2017-10-22T02:18:35.999Z,0.00
2017-10-22T02:19:35.944Z,0.00
2017-10-22T02:20:35.888Z,0.00
2017-10-22T02:21:35.834Z,0.00
2017-10-22T02:22:35.776Z,0.00
2017-10-22T02:23:35.720Z,0.00
2017-10-22T02:24:35.666Z,0.00
2017-10-22T02:25:35.607Z,0.00
2017-10-22T02:26:35.553Z,0.00
2017-10-22T02:27:35.498Z,0.00
2017-10-22T02:28:35.443Z,0.00
2017-10-22T02:29:35.387Z,0.00
2017-10-22T02:30:35.334Z,0.00
2017-10-22T02:31:35.278Z,0.00
2017-10-22T02:32:35.223Z,0.00
2017-10-22T02:33:35.169Z,0.00
2017-10-22T02:34:35.117Z,0.00
2017-10-22T02:35:35.065Z,0.00
2017-10-22T02:36:35.009Z,0.00
2017-10-22T02:37:34.928Z,0.00
2017-10-22T02:38:34.873Z,0.00
2017-10-22T02:39:34.818Z,0.00
2017-10-22T02:40:34.760Z,0.00
2017-10-22T02:41:34.704Z,0.00
2017-10-22T02:42:34.646Z,0.00
2017-10-22T02:43:34.591Z,0.00
2017-10-22T02:44:34.528Z,0.00
2017-10-22T02:45:34.479Z,0.00
2017-10-22T02:46:34.419Z,0.00
2017-10-22T02:47:34.366Z,0.00
2017-10-22T02:48:34.302Z,0.00
2017-10-22T02:49:34.245Z,0.00
2017-10-22T02:50:34.189Z,0.00
2017-10-22T02:51:34.133Z,0.00
2017-10-22T02:52:34.076Z,0.00
2017-10-22T02:53:34.022Z,0.00
2017-10-22T02:54:33.968Z,0.00
2017-10-22T02:55:33.910Z,0.00
2017-10-22T02:56:33.854Z,0.00
2017-10-22T02:57:33.799Z,0.00
2017-10-22T02:58:33.743Z,0.00
2017-10-22T02:59:33.688Z,0.00
2017-10-22T03:00:33.630Z,0.00
2017-10-22T03:01:33.574Z,0.00
2017-10-22T03:02:33.521Z,0.00
2017-10-22T03:03:33.465Z,0.00
2017-10-22T03:04:33.404Z,0.00
2017-10-22T03:05:33.356Z,0.00
2017-10-22T03:06:33.300Z,0.00
2017-10-22T03:07:33.247Z,0.00
2017-10-22T03:08:33.192Z,0.00
2017-10-22T03:09:33.121Z,0.00
2017-10-22T03:10:33.082Z,0.00
2017-10-22T03:11:33.006Z,0.00
2017-10-22T03:12:32.952Z,0.00
2017-10-22T03:13:32.895Z,0.00
2017-10-22T03:14:32.850Z,0.00
2017-10-22T03:15:32.779Z,0.00
2017-10-22T03:16:32.728Z,0.00
2017-10-22T03:17:32.669Z,0.00
2017-10-22T03:18:32.622Z,0.00
2017-10-22T03:19:32.561Z,0.00
2017-10-22T03:20:32.499Z,0.00
2017-10-22T03:21:32.441Z,0.00
2017-10-22T03:22:32.378Z,0.00
2017-10-22T03:23:32.323Z,0.00
2017-10-22T03:24:32.277Z,0.00
2017-10-22T03:25:32.211Z,0.00
2017-10-22T03:26:32.155Z,0.00
2017-10-22T03:27:32.099Z,0.00
2017-10-22T03:28:32.048Z,0.00
2017-10-22T03:29:31.989Z,0.00
2017-10-22T03:30:31.939Z,0.00
2017-10-22T03:31:31.877Z,0.00
2017-10-22T03:32:31.822Z,0.00
2017-10-22T03:33:31.766Z,0.00
2017-10-22T03:34:31.714Z,0.00
2017-10-22T03:35:31.653Z,0.00
2017-10-22T03:36:31.598Z,0.00
2017-10-22T03:37:31.543Z,0.00
2017-10-22T03:38:31.488Z,0.00
2017-10-22T03:39:31.433Z,0.00
2017-10-22T03:40:31.378Z,0.00
2017-10-22T03:41:31.326Z,0.00
2017-10-22T03:42:31.268Z,0.00
2017-10-22T03:43:31.213Z,0.00
2017-10-22T03:44:31.158Z,0.00
2017-10-22T03:45:31.088Z,0.00
2017-10-22T03:46:31.038Z,0.00
2017-10-22T03:47:30.972Z,0.00
2017-10-22T03:48:30.913Z,0.00
2017-10-22T03:49:30.859Z,0.00
2017-10-22T03:50:30.802Z,0.00
2017-10-22T03:51:30.743Z,0.00
2017-10-22T03:52:30.689Z,0.00
2017-10-22T03:53:30.632Z,0.00
2017-10-22T03:54:30.581Z,0.00
2017-10-22T03:55:30.520Z,0.00
2017-10-22T03:56:30.457Z,0.00
2017-10-22T03:57:30.399Z,0.00
2017-10-22T03:58:30.344Z,0.00
2017-10-22T03:59:30.288Z,0.00
2017-10-22T04:00:30.230Z,0.00
2017-10-22T04:01:30.177Z,0.00
2017-10-22T04:02:30.121Z,0.00
2017-10-22T04:03:30.064Z,0.00
2017-10-22T04:04:30.010Z,0.00
2017-10-22T04:05:29.953Z,0.00
2017-10-22T04:06:29.895Z,0.00
2017-10-22T04:07:29.840Z,0.00
2017-10-22T04:08:29.785Z,0.00
2017-10-22T04:09:29.730Z,0.00
2017-10-22T04:10:29.674Z,0.00
2017-10-22T04:11:29.619Z,0.00
2017-10-22T04:12:29.565Z,0.00
2017-10-22T04:13:29.510Z,0.00
2017-10-22T04:14:29.456Z,0.00
2017-10-22T04:15:29.400Z,0.00
2017-10-22T04:16:29.346Z,0.00
2017-10-22T04:17:29.290Z,0.00
2017-10-22T04:18:29.216Z,0.00
2017-10-22T04:19:29.159Z,0.00
2017-10-22T04:20:29.102Z,0.00
2017-10-22T04:21:29.046Z,0.00
2017-10-22T04:22:28.994Z,0.00
2017-10-22T04:23:28.928Z,0.00
2017-10-22T04:24:28.873Z,0.00
2017-10-22T04:25:28.818Z,0.00
2017-10-22T04:26:28.756Z,0.00
2017-10-22T04:27:28.697Z,0.00
2017-10-22T04:28:28.640Z,0.00
2017-10-22T04:29:28.585Z,0.00
2017-10-22T04:30:28.528Z,0.00
2017-10-22T04:31:28.472Z,0.00
2017-10-22T04:32:28.416Z,0.00
2017-10-22T04:33:28.361Z,0.00
2017-10-22T04:34:28.306Z,0.00
2017-10-22T04:35:28.248Z,0.00
2017-10-22T04:36:28.194Z,0.00
2017-10-22T04:37:28.136Z,0.00
2017-10-22T04:38:28.080Z,0.00
2017-10-22T04:39:28.025Z,0.00
2017-10-22T04:40:27.970Z,0.00
2017-10-22T04:41:27.915Z,0.00
2017-10-22T04:42:27.868Z,0.00
2017-10-22T04:43:27.806Z,0.00
2017-10-22T04:44:27.752Z,0.00
2017-10-22T04:45:27.696Z,0.00
2017-10-22T04:46:27.642Z,0.00
2017-10-22T04:47:27.567Z,0.00
2017-10-22T04:48:27.511Z,0.00
2017-10-22T04:49:27.454Z,0.00
2017-10-22T04:50:27.397Z,0.00
2017-10-22T04:51:27.339Z,0.00
2017-10-22T04:52:27.284Z,0.00
2017-10-22T04:53:27.225Z,0.00
2017-10-22T04:54:27.168Z,0.00
2017-10-22T04:55:27.104Z,0.00
2017-10-22T04:56:27.047Z,0.00
2017-10-22T04:57:26.992Z,0.00
2017-10-22T04:58:26.935Z,0.00
2017-10-22T04:59:26.880Z,0.00
2017-10-22T05:00:26.823Z,0.00
2017-10-22T05:01:26.770Z,0.00
2017-10-22T05:02:26.712Z,0.00
2017-10-22T05:03:26.657Z,0.00
2017-10-22T05:04:26.601Z,0.00
2017-10-22T05:05:26.544Z,0.00
2017-10-22T05:06:26.491Z,0.00
2017-10-22T05:07:26.432Z,0.00
2017-10-22T05:08:26.377Z,0.00
2017-10-22T05:09:26.321Z,0.00
2017-10-22T05:10:26.266Z,0.00
2017-10-22T05:11:26.203Z,0.00
2017-10-22T05:12:26.156Z,0.00
2017-10-22T05:13:26.102Z,0.00
2017-10-22T05:14:26.047Z,0.00
2017-10-22T05:15:25.992Z,0.00
2017-10-22T05:16:25.918Z,0.00
2017-10-22T05:17:25.862Z,0.00
2017-10-22T05:18:25.807Z,0.00
2017-10-22T05:19:25.751Z,0.00
2017-10-22T05:20:25.697Z,4.00
2017-10-22T05:21:25.635Z,0.00
2017-10-22T05:22:25.575Z,4.00
2017-10-22T05:23:25.522Z,4.00
2017-10-22T05:24:25.465Z,4.00
2017-10-22T05:25:25.409Z,4.00
2017-10-22T05:26:25.348Z,4.00
2017-10-22T05:27:25.287Z,4.00
2017-10-22T05:28:25.231Z,12.00
2017-10-22T05:29:25.176Z,8.00
2017-10-22T05:30:25.119Z,12.00
2017-10-22T05:31:25.065Z,16.00
2017-10-22T05:32:25.008Z,20.00
2017-10-22T05:33:24.952Z,20.00
2017-10-22T05:34:24.895Z,20.00
2017-10-22T05:35:24.867Z,24.00
2017-10-22T05:36:24.784Z,20.00
2017-10-22T05:37:24.728Z,20.00
2017-10-22T05:38:24.674Z,20.00
2017-10-22T05:39:24.617Z,24.00
2017-10-22T05:40:24.563Z,24.00
2017-10-22T05:41:24.502Z,24.00
2017-10-22T05:42:24.452Z,24.00
2017-10-22T05:43:24.398Z,28.00
2017-10-22T05:44:24.343Z,32.00
2017-10-22T05:45:24.289Z,36.00
2017-10-22T05:46:24.216Z,36.00
2017-10-22T05:47:24.159Z,36.00
2017-10-22T05:48:24.103Z,32.00
2017-10-22T05:49:24.046Z,32.00
2017-10-22T05:50:23.987Z,36.00
2017-10-22T05:51:23.932Z,36.00
2017-10-22T05:52:23.875Z,36.00
2017-10-22T05:53:23.818Z,36.00
2017-10-22T05:54:23.761Z,40.00
2017-10-22T05:55:23.706Z,40.00
2017-10-22T05:56:23.654Z,48.00
2017-10-22T05:57:23.585Z,56.00
2017-10-22T05:58:23.532Z,60.00
2017-10-22T05:59:23.471Z,64.00
2017-10-22T06:00:23.417Z,68.00
2017-10-22T06:01:23.366Z,72.00
2017-10-22T06:02:23.303Z,76.00
2017-10-22T06:03:23.250Z,80.00
2017-10-22T06:04:23.194Z,84.00
2017-10-22T06:05:23.137Z,96.00
2017-10-22T06:06:23.081Z,108.00
2017-10-22T06:07:23.024Z,116.00
2017-10-22T06:08:22.969Z,120.00
2017-10-22T06:09:22.913Z,144.00
2017-10-22T06:10:22.859Z,184.00
2017-10-22T06:11:22.800Z,224.00
2017-10-22T06:12:22.754Z,264.00
2017-10-22T06:13:22.694Z,296.00
2017-10-22T06:14:22.639Z,320.00
2017-10-22T06:15:22.585Z,352.00
2017-10-22T06:16:22.513Z,392.00
2017-10-22T06:17:22.475Z,436.00
2017-10-22T06:18:22.397Z,484.00
2017-10-22T06:19:22.343Z,544.00
2017-10-22T06:20:22.286Z,616.00
2017-10-22T06:21:22.228Z,688.00
2017-10-22T06:22:22.172Z,736.00
2017-10-22T06:23:22.114Z,772.00
2017-10-22T06:24:22.059Z,788.00
2017-10-22T06:25:22.003Z,816.00
2017-10-22T06:26:21.947Z,852.00
2017-10-22T06:27:21.883Z,900.00
2017-10-22T06:28:21.825Z,944.00
2017-10-22T06:29:21.768Z,980.00
2017-10-22T06:30:21.718Z,1028.00
2017-10-22T06:31:21.661Z,1072.00
2017-10-22T06:32:21.603Z,1120.00
2017-10-22T06:33:21.551Z,1148.00
2017-10-22T06:34:21.489Z,1180.00
2017-10-22T06:35:21.438Z,1208.00
2017-10-22T06:36:21.376Z,1280.00
2017-10-22T06:37:21.319Z,1356.00
2017-10-22T06:38:21.264Z,1428.00
2017-10-22T06:39:21.209Z,1484.00
2017-10-22T06:40:21.154Z,1556.00
2017-10-22T06:41:21.092Z,1664.00
2017-10-22T06:42:21.044Z,1748.00
2017-10-22T06:43:20.995Z,1828.00
2017-10-22T06:44:20.935Z,1920.00
2017-10-22T06:45:20.879Z,2060.00
2017-10-22T06:46:20.826Z,2244.00
2017-10-22T06:47:20.751Z,2412.00
2017-10-22T06:48:20.694Z,2560.00
2017-10-22T06:49:20.654Z,2692.00
2017-10-22T06:50:20.579Z,2756.00
2017-10-22T06:51:20.525Z,2732.00
2017-10-22T06:52:20.467Z,2696.00
2017-10-22T06:53:20.411Z,2692.00
2017-10-22T06:54:20.353Z,2756.00
2017-10-22T06:55:20.289Z,2892.00
2017-10-22T06:56:20.235Z,3104.00
2017-10-22T06:57:20.175Z,3292.00
2017-10-22T06:58:20.120Z,3380.00
2017-10-22T06:59:20.066Z,3400.00
2017-10-22T07:00:20.008Z,3384.00
2017-10-22T07:01:19.951Z,3252.00
2017-10-22T07:02:19.896Z,2872.00
2017-10-22T07:03:19.841Z,2472.00
2017-10-22T07:04:19.784Z,2216.00
2017-10-22T07:05:19.729Z,2072.00
2017-10-22T07:06:19.673Z,2024.00
2017-10-22T07:07:19.616Z,1920.00
2017-10-22T07:08:19.561Z,1780.00
2017-10-22T07:09:19.505Z,1700.00
2017-10-22T07:10:19.451Z,1768.00
2017-10-22T07:11:19.395Z,2008.00
2017-10-22T07:12:19.340Z,2420.00
2017-10-22T07:13:19.285Z,2496.00
2017-10-22T07:14:19.231Z,2204.00
2017-10-22T07:15:19.177Z,2276.00
2017-10-22T07:16:19.121Z,2492.00
2017-10-22T07:17:19.067Z,3072.00
2017-10-22T07:18:18.991Z,3120.00
2017-10-22T07:19:18.935Z,3592.00
2017-10-22T07:20:18.886Z,4368.00
2017-10-22T07:21:18.822Z,5112.00
2017-10-22T07:22:18.764Z,6460.00
2017-10-22T07:23:18.711Z,6176.00
2017-10-22T07:24:18.654Z,7008.00
2017-10-22T07:25:18.598Z,8392.00
2017-10-22T07:26:18.536Z,10472.00
2017-10-22T07:27:18.476Z,8920.00
2017-10-22T07:28:18.421Z,8792.00
2017-10-22T07:29:18.366Z,8896.00
2017-10-22T07:30:18.310Z,12108.00
2017-10-22T07:31:18.252Z,9244.00
2017-10-22T07:32:18.196Z,16736.00
2017-10-22T07:33:18.142Z,24928.00
2017-10-22T07:34:18.086Z,18848.00
2017-10-22T07:35:18.030Z,23200.00
2017-10-22T07:36:17.974Z,22656.00
2017-10-22T07:37:17.921Z,30560.00
2017-10-22T07:38:17.870Z,32960.00
2017-10-22T07:39:17.811Z,11668.00
2017-10-22T07:40:17.759Z,13752.00
2017-10-22T07:41:17.700Z,11860.00
2017-10-22T07:42:17.645Z,9900.00
2017-10-22T07:43:17.591Z,8708.00
2017-10-22T07:44:17.535Z,9252.00
2017-10-22T07:45:17.482Z,10752.00
2017-10-22T07:46:17.428Z,10000.00
2017-10-22T07:47:17.372Z,8812.00
2017-10-22T07:48:17.317Z,8128.00
2017-10-22T07:49:17.265Z,8068.00
2017-10-22T07:50:17.207Z,9244.00
2017-10-22T07:51:17.155Z,11624.00
2017-10-22T07:52:17.100Z,15144.00
2017-10-22T07:53:17.044Z,18464.00
2017-10-22T07:54:16.989Z,21664.00
2017-10-22T07:55:16.934Z,14340.00
2017-10-22T07:56:16.881Z,21568.00
2017-10-22T07:57:16.829Z,35840.00
2017-10-22T07:58:16.773Z,33248.00
2017-10-22T07:59:16.719Z,20576.00
2017-10-22T08:00:16.664Z,12900.00
2017-10-22T08:01:16.608Z,8180.00
2017-10-22T08:02:16.556Z,7080.00
2017-10-22T08:03:16.502Z,5456.00
2017-10-22T08:04:16.446Z,3728.00
2017-10-22T08:05:16.392Z,3396.00
2017-10-22T08:06:16.337Z,3316.00
2017-10-22T08:07:16.285Z,3680.00
2017-10-22T08:08:16.230Z,4496.00
2017-10-22T08:09:16.174Z,5704.00
2017-10-22T08:10:16.122Z,7276.00
2017-10-22T08:11:16.068Z,8896.00
2017-10-22T08:12:16.015Z,9744.00
2017-10-22T08:13:15.964Z,10000.00
2017-10-22T08:14:15.904Z,9516.00
2017-10-22T08:15:15.847Z,8960.00
2017-10-22T08:16:15.793Z,8516.00
2017-10-22T08:17:15.739Z,8008.00
2017-10-22T08:18:15.688Z,7732.00
2017-10-22T08:19:15.630Z,7644.00
2017-10-22T08:20:15.575Z,7776.00
2017-10-22T08:21:15.522Z,7944.00
2017-10-22T08:22:15.468Z,8052.00
2017-10-22T08:23:15.415Z,8180.00
2017-10-22T08:24:15.358Z,8024.00
2017-10-22T08:25:15.301Z,8072.00
2017-10-22T08:26:15.247Z,8000.00
2017-10-22T08:27:15.191Z,8132.00
2017-10-22T08:28:15.143Z,8136.00
2017-10-22T08:29:15.082Z,8380.00
2017-10-22T08:30:15.026Z,8352.00
2017-10-22T08:31:14.971Z,8168.00
2017-10-22T08:32:14.917Z,7948.00
2017-10-22T08:33:14.868Z,7732.00
2017-10-22T08:34:14.807Z,7468.00
2017-10-22T08:35:14.752Z,7168.00
2017-10-22T08:36:14.699Z,6916.00
2017-10-22T08:37:14.642Z,6856.00
2017-10-22T08:38:14.592Z,7296.00
2017-10-22T08:39:14.538Z,8596.00
2017-10-22T08:40:14.482Z,10780.00
2017-10-22T08:41:14.423Z,10172.00
2017-10-22T08:42:14.370Z,10568.00
2017-10-22T08:43:14.315Z,9488.00
2017-10-22T08:44:14.266Z,8496.00
2017-10-22T08:45:14.203Z,8560.00
2017-10-22T08:46:14.146Z,10808.00
2017-10-22T08:47:14.095Z,11124.00
2017-10-22T08:48:14.040Z,10852.00
2017-10-22T08:49:13.985Z,10640.00
2017-10-22T08:50:13.928Z,10008.00
2017-10-22T08:51:13.872Z,9648.00
2017-10-22T08:52:13.819Z,11788.00
2017-10-22T08:53:13.766Z,8284.00
2017-10-22T08:54:13.708Z,7312.00
2017-10-22T08:55:13.661Z,9664.00
2017-10-22T08:56:13.598Z,22048.00
2017-10-22T08:57:13.550Z,10484.00
2017-10-22T08:58:13.492Z,12544.00
2017-10-22T08:59:13.432Z,42176.00
2017-10-22T09:00:13.378Z,37152.00
2017-10-22T09:01:13.322Z,13348.00
2017-10-22T09:02:13.268Z,11656.00
2017-10-22T09:03:13.215Z,12764.00
2017-10-22T09:04:13.162Z,12936.00
2017-10-22T09:05:13.108Z,12184.00
2017-10-22T09:06:13.051Z,12624.00
2017-10-22T09:07:12.995Z,10288.00
2017-10-22T09:08:12.941Z,10392.00
2017-10-22T09:09:12.887Z,10868.00
2017-10-22T09:10:12.834Z,11032.00
2017-10-22T09:11:12.779Z,13020.00
2017-10-22T09:12:12.723Z,17792.00
2017-10-22T09:13:12.673Z,16384.00
2017-10-22T09:14:12.617Z,45728.00
2017-10-22T09:15:12.561Z,17088.00
2017-10-22T09:16:12.506Z,22848.00
2017-10-22T09:17:12.452Z,16992.00
2017-10-22T09:18:12.397Z,12216.00
2017-10-22T09:19:12.344Z,33920.00
2017-10-22T09:20:12.290Z,23040.00
2017-10-22T09:21:12.236Z,19104.00
2017-10-22T09:22:12.181Z,51712.00
2017-10-22T09:23:12.128Z,61664.00
2017-10-22T09:24:12.071Z,59232.00
2017-10-22T09:25:12.019Z,59008.00
2017-10-22T09:26:11.965Z,58272.00
2017-10-22T09:27:11.909Z,58144.00
2017-10-22T09:28:11.857Z,56448.00
2017-10-22T09:29:11.817Z,56064.00
2017-10-22T09:30:11.750Z,55168.00
2017-10-22T09:31:11.710Z,30144.00
2017-10-22T09:32:11.665Z,26016.00
2017-10-22T09:33:11.603Z,26944.00
2017-10-22T09:34:11.551Z,21376.00
2017-10-22T09:35:11.499Z,25248.00
2017-10-22T09:36:11.447Z,21792.00
2017-10-22T09:37:11.414Z,53664.00
2017-10-22T09:38:11.363Z,55296.00
2017-10-22T09:39:11.305Z,55392.00
2017-10-22T09:40:11.250Z,54976.00
2017-10-22T09:41:11.196Z,53600.00
2017-10-22T09:42:11.141Z,50624.00
2017-10-22T09:43:11.088Z,41408.00
2017-10-22T09:44:11.055Z,33184.00
2017-10-22T09:45:10.983Z,25344.00
2017-10-22T09:46:10.933Z,40640.00
2017-10-22T09:47:10.880Z,34432.00
2017-10-22T09:48:10.828Z,25344.00
2017-10-22T09:49:10.777Z,25184.00
2017-10-22T09:50:10.744Z,11276.00
2017-10-22T09:51:10.681Z,12044.00
2017-10-22T09:52:10.630Z,14516.00
2017-10-22T09:53:10.579Z,20480.00
2017-10-22T09:54:10.530Z,14332.00
2017-10-22T09:55:10.494Z,17024.00
2017-10-22T09:56:10.439Z,13260.00
2017-10-22T09:57:10.391Z,16864.00
2017-10-22T09:58:10.330Z,13292.00
2017-10-22T09:59:10.277Z,12520.00
2017-10-22T10:00:10.224Z,13584.00
2017-10-22T10:01:10.173Z,15936.00
2017-10-22T10:02:10.121Z,17920.00
2017-10-22T10:03:10.070Z,17920.00
2017-10-22T10:04:10.031Z,13580.00
2017-10-22T10:05:09.962Z,12424.00
2017-10-22T10:06:09.911Z,14544.00
2017-10-22T10:07:09.866Z,15456.00
2017-10-22T10:08:09.816Z,16320.00
2017-10-22T10:09:09.763Z,16320.00
2017-10-22T10:10:09.712Z,14528.00
2017-10-22T10:11:09.661Z,13656.00
2017-10-22T10:12:09.609Z,12520.00
2017-10-22T10:13:09.575Z,11268.00
2017-10-22T10:14:09.520Z,10332.00
2017-10-22T10:15:09.465Z,8924.00
2017-10-22T10:16:09.414Z,8024.00
2017-10-22T10:17:09.356Z,7360.00
2017-10-22T10:18:09.301Z,6952.00
2017-10-22T10:19:09.251Z,6728.00
2017-10-22T10:20:09.193Z,6428.00
2017-10-22T10:21:09.140Z,6524.00
2017-10-22T10:22:09.086Z,7356.00
2017-10-22T10:23:09.032Z,9004.00
2017-10-22T10:24:08.981Z,9704.00
2017-10-22T10:25:08.931Z,8868.00
2017-10-22T10:26:08.874Z,8112.00
2017-10-22T10:27:08.820Z,8000.00
2017-10-22T10:28:08.767Z,7908.00
2017-10-22T10:29:08.715Z,8052.00
2017-10-22T10:30:08.660Z,7568.00
2017-10-22T10:31:08.605Z,7052.00
2017-10-22T10:32:08.551Z,6876.00
2017-10-22T10:33:08.496Z,7016.00
2017-10-22T10:34:08.442Z,6480.00
2017-10-22T10:35:08.389Z,5888.00
2017-10-22T10:36:08.337Z,5780.00
2017-10-22T10:37:08.288Z,6416.00
2017-10-22T10:38:08.234Z,7480.00
2017-10-22T10:39:08.181Z,8864.00
2017-10-22T10:40:08.123Z,9144.00
2017-10-22T10:41:08.069Z,8996.00
2017-10-22T10:42:08.019Z,8296.00
2017-10-22T10:43:07.958Z,8696.00
2017-10-22T10:44:07.908Z,9556.00
2017-10-22T10:45:07.856Z,9800.00
2017-10-22T10:46:07.796Z,9388.00
2017-10-22T10:47:07.748Z,9600.00
2017-10-22T10:48:07.694Z,10256.00
2017-10-22T10:49:07.639Z,10928.00
2017-10-22T10:50:07.584Z,12060.00
2017-10-22T10:51:07.528Z,11088.00
2017-10-22T10:52:07.475Z,9740.00
2017-10-22T10:53:07.424Z,8364.00
2017-10-22T10:54:07.371Z,7348.00
2017-10-22T10:55:07.313Z,6908.00
2017-10-22T10:56:07.256Z,6832.00
2017-10-22T10:57:07.207Z,6904.00
2017-10-22T10:58:07.153Z,7244.00
2017-10-22T10:59:07.096Z,7560.00
2017-10-22T11:00:07.045Z,7052.00
2017-10-22T11:01:06.990Z,6664.00
2017-10-22T11:02:06.933Z,6488.00
2017-10-22T11:03:06.881Z,7048.00
2017-10-22T11:04:06.825Z,7788.00
2017-10-22T11:05:06.769Z,8736.00
2017-10-22T11:06:06.714Z,9604.00
2017-10-22T11:07:06.660Z,9456.00
2017-10-22T11:08:06.607Z,9024.00
2017-10-22T11:09:06.554Z,8632.00
2017-10-22T11:10:06.499Z,8880.00
2017-10-22T11:11:06.444Z,8288.00
2017-10-22T11:12:06.393Z,7816.00
2017-10-22T11:13:06.333Z,7848.00
2017-10-22T11:14:06.281Z,8508.00
2017-10-22T11:15:06.226Z,9532.00
2017-10-22T11:16:06.173Z,9628.00
2017-10-22T11:17:06.155Z,8688.00
2017-10-22T11:18:06.060Z,7716.00
2017-10-22T11:19:06.009Z,7324.00
2017-10-22T11:20:05.952Z,7424.00
2017-10-22T11:21:05.898Z,7396.00
2017-10-22T11:22:05.844Z,6812.00
2017-10-22T11:23:05.791Z,6652.00
2017-10-22T11:24:05.737Z,7148.00
2017-10-22T11:25:05.682Z,8216.00
2017-10-22T11:26:05.627Z,8588.00
2017-10-22T11:27:05.571Z,8472.00
2017-10-22T11:28:05.551Z,8420.00
2017-10-22T11:29:05.474Z,8624.00
2017-10-22T11:30:05.407Z,9208.00
2017-10-22T11:31:05.365Z,10764.00
2017-10-22T11:32:05.309Z,10448.00
2017-10-22T11:33:05.245Z,9660.00
2017-10-22T11:34:05.189Z,8944.00
2017-10-22T11:35:05.136Z,8240.00
2017-10-22T11:36:05.081Z,7864.00
2017-10-22T11:37:05.027Z,7140.00
2017-10-22T11:38:04.970Z,6616.00
2017-10-22T11:39:04.916Z,5968.00
2017-10-22T11:40:04.866Z,5776.00
2017-10-22T11:41:04.809Z,5848.00
2017-10-22T11:42:04.756Z,6792.00
2017-10-22T11:43:04.701Z,8504.00
2017-10-22T11:44:04.644Z,9380.00
2017-10-22T11:45:04.591Z,8592.00
2017-10-22T11:46:04.533Z,7568.00
2017-10-22T11:47:04.481Z,6864.00
2017-10-22T11:48:04.439Z,6668.00
2017-10-22T11:49:04.373Z,6704.00
2017-10-22T11:50:04.318Z,6364.00
2017-10-22T11:51:04.264Z,6436.00
2017-10-22T11:52:04.208Z,6316.00
2017-10-22T11:53:04.154Z,6252.00
2017-10-22T11:54:04.098Z,6136.00
2017-10-22T11:55:04.045Z,6272.00
2017-10-22T11:56:03.991Z,6012.00
2017-10-22T11:57:03.962Z,6188.00
2017-10-22T11:58:03.882Z,6768.00
2017-10-22T11:59:03.826Z,6896.00
2017-10-22T12:00:03.770Z,7268.00
2017-10-22T12:01:03.721Z,7100.00
2017-10-22T12:02:03.656Z,7208.00
2017-10-22T12:03:03.610Z,7532.00
2017-10-22T12:04:03.558Z,8616.00
2017-10-22T12:05:03.497Z,9116.00
2017-10-22T12:06:03.445Z,8556.00
2017-10-22T12:07:03.388Z,8100.00
2017-10-22T12:08:03.336Z,8196.00
2017-10-22T12:09:03.278Z,7940.00
2017-10-22T12:10:03.222Z,7180.00
2017-10-22T12:11:03.171Z,6820.00
2017-10-22T12:12:03.115Z,6980.00
2017-10-22T12:13:03.058Z,7296.00
2017-10-22T12:14:03.004Z,7600.00
2017-10-22T12:15:10.111Z,7476.00
2017-10-22T12:16:54.719Z,7084.00
2017-10-22T12:17:54.656Z,6356.00
2017-10-22T12:19:47.422Z,5664.00
2017-10-22T12:20:47.360Z,5672.00
2017-10-22T12:22:39.130Z,5584.00
2017-10-22T12:23:39.065Z,5592.00
2017-10-22T12:25:30.838Z,6420.00
2017-10-22T12:26:30.776Z,6412.00
2017-10-22T12:28:22.534Z,6028.00
2017-10-22T12:29:22.478Z,5672.00
2017-10-22T12:31:14.257Z,5268.00
2017-10-22T12:32:14.193Z,5412.00
2017-10-22T12:34:05.965Z,5776.00
2017-10-22T12:35:05.907Z,5972.00
2017-10-22T12:36:57.676Z,6652.00
2017-10-22T12:37:57.612Z,7056.00
2017-10-22T12:39:49.379Z,6936.00
2017-10-22T12:40:49.322Z,6092.00
2017-10-22T12:42:41.091Z,5704.00
2017-10-22T12:43:41.028Z,5800.00